Aeroporto :
LOGIN :

Iscrizione | Disclaimer

   EN    FR    IT 

 










Sommario :    VFR   VFR Marginale   IFR   IFR Intensivo   IFR Molto Intensivo
Visibilità : 
Base nubi : 
>= 8 km
>= 3000ft
5 / 8 km
1000 / 3000 ft
1500m / 5 km
500 / 1000 ft
800 / 1500m
200 / 500 ft
< 800m
< 200 ft
Simboli :   Temporali  Nebbia  Neve Forte  Precipitazioni Forti  Vento > 20 kt
SIGMETs :   Varie  Temporali  Ghiacco  Turbolenza  Onda orograficha  Ceneri Vulcaniche






- Altitudine del aeroporto : 171 ft
- Codice IATA : EGC


LFBE - Bergerac

ULTIMO METAR :
  • 200600Z AUTO 08004KT 1700 1100 R27/1700D BR VV/// M02/M02 Q1011 TEMPO 0500 FG

METARs OBSOLETI :
  • 200530Z AUTO 08005KT 2700 BR VV/// M02/M02 Q1011
  • 200500Z AUTO 08004KT 0800 R27/0900U FZFG VV/// M01/M02 Q1011
  • 200430Z AUTO 08004KT 0550 R27/0700N FZFG VV/// M01/M02 Q1012
  • 200400Z AUTO 06003KT 0600 R27/0750N FZFG VV/// M01/M02 Q1012

TAF TAF LFBE
Valido dal 20 a 06 ore il 21 a 06 ore UTC


200500Z 2006/2106 09005KT 3000 BR NSC
PROB30
TEMPO 2006/2008 0500 FG VV///
BECMG 2010/2012 15010KT CAVOK
BECMG 2017/2019 09005KT
TEMPO 2020/2103 2000 BR



MetMap, La meteo Aeronautica in un colpo d'occhio ! - Copyright ORBIFLY Dicembre 2007 - Disclaimer

ORBIFLY MET'MAP TEAM :

Programmazione e sviluppo : Alexandra Zaïnal
Concezione e sviluppo : Baudouin d'Aumeries
Co-Programmazione e sviluppo : Marc-Olivier Méhu
Supporto tecnico e logistico : Manuel Goepfert
Aiuto per la traduzione : Arnaldo La Scala

Contatto : metmap@orbifly.com




FONTI E CREDITI :

   NOAA